createdAt,value
2018-12-11T00:09:16.996Z,5.20
2018-12-11T00:19:23.180Z,5.20
2018-12-11T00:39:35.682Z,5.20
2018-12-11T00:44:38.831Z,5.20
2018-12-11T00:49:41.895Z,5.10
2018-12-11T00:54:45.053Z,5.10
2018-12-11T00:59:48.160Z,5.10
2018-12-11T01:04:51.243Z,5.10
2018-12-11T01:09:54.399Z,5.10
2018-12-11T01:15:15.241Z,5.10
2018-12-11T01:25:22.465Z,5.00
2018-12-11T01:30:25.576Z,5.00
2018-12-11T01:35:28.653Z,5.00
2018-12-11T01:40:31.719Z,5.10
2018-12-11T01:50:37.952Z,5.00
2018-12-11T01:55:41.028Z,5.00
2018-12-11T02:00:44.168Z,5.00
2018-12-11T02:05:47.248Z,5.00
2018-12-11T02:10:50.359Z,5.00
2018-12-11T02:15:53.724Z,5.00
2018-12-11T02:20:56.784Z,5.00
2018-12-11T02:31:02.978Z,5.00
2018-12-11T02:36:06.179Z,4.90
2018-12-11T02:51:15.561Z,4.80
2018-12-11T02:56:18.627Z,4.70
2018-12-11T03:01:21.797Z,4.70
2018-12-11T03:06:24.949Z,4.70
2018-12-11T03:16:31.292Z,4.70
2018-12-11T03:21:34.843Z,4.60
2018-12-11T03:26:38.101Z,4.50
2018-12-11T03:36:44.392Z,4.40
2018-12-11T03:41:47.493Z,4.40
2018-12-11T03:46:50.644Z,4.40
2018-12-11T03:51:53.828Z,4.40
2018-12-11T03:56:56.977Z,4.40
2018-12-11T04:02:00.194Z,4.50
2018-12-11T04:17:09.957Z,4.70
2018-12-11T04:22:13.098Z,4.70
2018-12-11T04:32:19.236Z,4.80
2018-12-11T04:37:22.353Z,4.80
2018-12-11T04:42:25.434Z,4.70
2018-12-11T04:47:28.591Z,4.70
2018-12-11T04:52:31.655Z,4.70
2018-12-11T04:57:34.764Z,4.70
2018-12-11T05:02:37.836Z,4.70
2018-12-11T05:17:47.166Z,4.70
2018-12-11T05:22:50.235Z,4.70
2018-12-11T05:32:56.477Z,4.80
2018-12-11T05:37:59.557Z,4.80
2018-12-11T05:43:02.628Z,4.80
2018-12-11T05:48:05.702Z,4.80
2018-12-11T05:53:08.886Z,4.80
2018-12-11T05:58:11.955Z,4.80
2018-12-11T06:03:15.021Z,4.60
2018-12-11T06:08:18.110Z,4.60
2018-12-11T06:13:21.196Z,4.70
2018-12-11T06:23:27.888Z,4.70
2018-12-11T06:43:40.245Z,4.80
2018-12-11T06:53:46.436Z,4.80
2018-12-11T06:58:49.536Z,4.80
2018-12-11T07:03:52.647Z,4.80
2018-12-11T07:13:58.836Z,4.80
2018-12-11T07:19:01.939Z,4.80
2018-12-11T07:24:05.433Z,4.70
2018-12-11T07:39:14.683Z,4.70
2018-12-11T07:44:17.769Z,4.80
2018-12-11T07:49:20.836Z,4.80
2018-12-11T07:59:27.036Z,4.80
2018-12-11T08:04:30.147Z,4.80
2018-12-11T08:09:33.220Z,4.80
2018-12-11T08:14:36.310Z,4.90
2018-12-11T08:19:39.416Z,4.90
2018-12-11T08:24:42.482Z,5.00
2018-12-11T08:29:45.640Z,5.00
2018-12-11T08:34:48.708Z,5.00
2018-12-11T08:39:51.830Z,5.00
2018-12-11T08:49:57.981Z,5.20
2018-12-11T09:05:10.687Z,5.30
2018-12-11T09:15:16.995Z,5.30
2018-12-11T09:20:20.075Z,5.40
2018-12-11T09:25:23.180Z,5.40
2018-12-11T09:30:26.273Z,5.40
2018-12-11T09:40:32.560Z,5.50
2018-12-11T09:45:35.636Z,5.40
2018-12-11T09:50:38.713Z,5.40
2018-12-11T09:55:41.811Z,5.30
2018-12-11T10:00:44.938Z,5.20
2018-12-11T10:10:51.267Z,5.80
2018-12-11T10:15:54.356Z,5.80
2018-12-11T10:20:57.520Z,5.70
2018-12-11T10:26:00.586Z,5.60
2018-12-11T10:31:03.723Z,5.50
2018-12-11T10:36:06.897Z,5.40
2018-12-11T10:46:13.076Z,5.50
2018-12-11T10:56:19.284Z,5.70
2018-12-11T11:01:24.426Z,5.70
2018-12-11T11:06:27.514Z,5.90
2018-12-11T11:21:36.762Z,6.00
2018-12-11T11:26:39.829Z,6.00
2018-12-11T11:31:42.949Z,6.00
2018-12-11T11:41:49.153Z,6.00
2018-12-11T11:46:52.234Z,6.00
2018-12-11T11:51:55.352Z,6.00
2018-12-11T11:56:58.431Z,6.10
2018-12-11T12:02:01.540Z,6.20
2018-12-11T12:07:04.691Z,6.20
2018-12-11T12:12:07.762Z,6.30
2018-12-11T12:17:10.827Z,6.30
2018-12-11T12:27:16.971Z,6.50
2018-12-11T12:32:20.048Z,6.60
2018-12-11T12:37:23.131Z,6.80
2018-12-11T12:42:26.230Z,6.70
2018-12-11T12:47:29.295Z,6.50
2018-12-11T12:52:32.376Z,6.60
2018-12-11T13:02:38.551Z,6.70
2018-12-11T13:07:41.642Z,6.70
2018-12-11T13:12:44.764Z,6.70
2018-12-11T13:22:50.919Z,6.60
2018-12-11T13:38:00.227Z,6.90
2018-12-11T13:48:06.692Z,6.70
2018-12-11T13:53:09.854Z,6.50
2018-12-11T14:03:15.990Z,6.30
2018-12-11T14:08:19.087Z,6.30
2018-12-11T14:18:25.266Z,6.20
2018-12-11T14:23:28.403Z,6.20
2018-12-11T14:28:32.039Z,6.10
2018-12-11T14:33:35.197Z,6.20
2018-12-11T14:38:38.303Z,6.10
2018-12-11T14:43:41.379Z,6.00
2018-12-11T14:48:44.459Z,5.90
2018-12-11T14:53:47.563Z,5.80
2018-12-11T14:58:50.647Z,5.70
2018-12-11T15:08:58.790Z,5.50
2018-12-11T15:14:01.874Z,5.40
2018-12-11T15:29:11.183Z,4.80
2018-12-11T15:34:14.445Z,4.60
2018-12-11T15:39:17.528Z,4.50
2018-12-11T15:44:20.627Z,4.50
2018-12-11T15:54:26.843Z,4.50
2018-12-11T15:59:29.907Z,4.50
2018-12-11T16:04:33.011Z,4.50
2018-12-11T16:09:36.507Z,4.60
2018-12-11T16:14:39.613Z,4.60
2018-12-11T16:19:42.691Z,4.70
2018-12-11T16:29:49.829Z,4.80
2018-12-11T16:34:52.891Z,4.90
2018-12-11T16:39:55.953Z,5.00
2018-12-11T16:44:59.016Z,5.00
2018-12-11T16:50:02.136Z,5.10
2018-12-11T16:55:06.111Z,5.00
2018-12-11T17:05:12.943Z,5.00
2018-12-11T17:15:19.567Z,5.00
2018-12-11T17:20:22.911Z,5.00
2018-12-11T17:25:25.983Z,5.00
2018-12-11T17:30:29.252Z,4.90
2018-12-11T17:35:32.440Z,4.80
2018-12-11T17:45:38.579Z,4.90
2018-12-11T17:50:42.160Z,4.90
2018-12-11T17:55:45.227Z,4.90
2018-12-11T18:00:48.288Z,4.80
2018-12-11T18:21:00.791Z,4.40
2018-12-11T18:26:03.917Z,4.30
2018-12-11T18:31:07.024Z,4.20
2018-12-11T18:36:10.312Z,4.10
2018-12-11T18:41:13.372Z,4.00
2018-12-11T18:46:16.488Z,3.90
2018-12-11T18:51:19.599Z,3.90
2018-12-11T18:56:22.739Z,3.90
2018-12-11T19:06:29.043Z,3.90
2018-12-11T19:16:36.918Z,3.90
2018-12-11T19:21:41.104Z,3.90
2018-12-11T19:26:44.237Z,3.90
2018-12-11T19:31:47.381Z,3.90
2018-12-11T19:36:50.679Z,3.90
2018-12-11T19:41:54.046Z,3.90
2018-12-11T19:46:57.122Z,3.80
2018-12-11T19:57:03.256Z,3.70
2018-12-11T20:02:06.476Z,3.80
2018-12-11T20:07:09.576Z,3.80
2018-12-11T20:17:28.023Z,3.90
2018-12-11T20:22:32.375Z,3.90
2018-12-11T20:27:35.439Z,3.80
2018-12-11T20:37:41.584Z,3.80
2018-12-11T20:47:47.759Z,3.90
2018-12-11T20:57:53.944Z,4.00
2018-12-11T21:02:57.011Z,4.00
2018-12-11T21:08:00.117Z,3.90
2018-12-11T21:13:03.213Z,3.80
2018-12-11T21:18:07.087Z,3.60
2018-12-11T21:33:16.322Z,3.30
2018-12-11T21:38:19.410Z,3.20
2018-12-11T21:53:28.616Z,2.90
2018-12-11T21:58:31.685Z,2.90
2018-12-11T22:03:34.829Z,2.80
2018-12-11T22:08:37.904Z,2.70
2018-12-11T22:18:44.120Z,2.70
2018-12-11T22:28:50.263Z,2.50
2018-12-11T22:33:53.364Z,2.40
2018-12-11T22:38:56.454Z,2.40
2018-12-11T22:43:59.516Z,2.40
2018-12-11T22:59:08.783Z,2.40
2018-12-11T23:04:11.927Z,2.40
2018-12-11T23:19:21.239Z,2.70
2018-12-11T23:29:27.377Z,2.80
2018-12-11T23:34:30.459Z,2.90
2018-12-11T23:39:33.539Z,3.00
2018-12-11T23:44:36.633Z,3.00
2018-12-11T23:49:39.712Z,3.00
2018-12-11T23:54:42.775Z,3.00
2018-12-11T23:59:45.945Z,3.10
